createdAt,value
2022-09-23T00:00:00.282Z,101540
2022-09-23T00:01:01.461Z,101530
2022-09-23T00:02:00.294Z,101530
2022-09-23T00:03:00.228Z,101530
2022-09-23T00:04:00.210Z,101530
2022-09-23T00:05:00.162Z,101530
2022-09-23T00:06:01.113Z,101530
2022-09-23T00:07:00.162Z,101530
2022-09-23T00:08:00.246Z,101530
2022-09-23T00:09:00.149Z,101540
2022-09-23T00:10:00.160Z,101540
2022-09-23T00:11:05.577Z,101540
2022-09-23T00:12:00.293Z,101540
2022-09-23T00:13:00.161Z,101530
2022-09-23T00:14:00.293Z,101530
2022-09-23T00:15:00.158Z,101530
2022-09-23T00:16:02.403Z,101530
2022-09-23T00:17:00.313Z,101530
2022-09-23T00:18:00.155Z,101530
2022-09-23T00:19:01.153Z,101530
2022-09-23T00:20:00.295Z,101530
2022-09-23T00:21:02.173Z,101530
2022-09-23T00:22:00.157Z,101530
2022-09-23T00:23:00.342Z,101520
2022-09-23T00:24:00.320Z,101520
2022-09-23T00:25:00.146Z,101520
2022-09-23T00:26:01.470Z,101520
2022-09-23T00:27:00.551Z,101520
2022-09-23T00:28:00.257Z,101520
2022-09-23T00:29:00.181Z,101520
2022-09-23T00:30:00.577Z,101520
2022-09-23T00:31:02.379Z,101520
2022-09-23T00:32:00.618Z,101520
2022-09-23T00:33:00.166Z,101510
2022-09-23T00:34:00.791Z,101510
2022-09-23T00:35:00.425Z,101520
2022-09-23T00:36:00.588Z,101520
2022-09-23T00:37:00.160Z,101510
2022-09-23T00:38:00.158Z,101510
2022-09-23T00:39:00.255Z,101520
2022-09-23T00:40:00.383Z,101520
2022-09-23T00:41:00.236Z,101510
2022-09-23T00:42:00.191Z,101510
2022-09-23T00:43:00.169Z,101520
2022-09-23T00:44:00.867Z,101520
2022-09-23T00:45:00.193Z,101520
2022-09-23T00:46:00.301Z,101520
2022-09-23T00:47:00.287Z,101520
2022-09-23T00:48:01.674Z,101520
2022-09-23T00:49:07.697Z,101510
2022-09-23T00:50:10.092Z,101510
2022-09-23T00:51:00.593Z,101510
2022-09-23T00:52:05.694Z,101510
2022-09-23T00:53:01.674Z,101510
2022-09-23T00:54:00.990Z,101510
2022-09-23T00:55:01.775Z,101510
2022-09-23T00:56:01.884Z,101510
2022-09-23T00:57:00.297Z,101510
2022-09-23T00:58:01.693Z,101510
2022-09-23T00:59:00.647Z,101510
2022-09-23T01:00:00.324Z,101510
2022-09-23T01:01:00.982Z,101510
2022-09-23T01:02:01.180Z,101510
2022-09-23T01:03:01.095Z,101510
2022-09-23T01:04:00.263Z,101510
2022-09-23T01:05:00.799Z,101510
2022-09-23T01:06:00.202Z,101510
2022-09-23T01:07:00.159Z,101500
2022-09-23T01:08:01.315Z,101500
2022-09-23T01:09:00.217Z,101500
2022-09-23T01:10:00.936Z,101500
2022-09-23T01:11:10.102Z,101500
2022-09-23T01:12:03.503Z,101500
2022-09-23T01:13:01.204Z,101500
2022-09-23T01:14:00.185Z,101500
2022-09-23T01:15:10.103Z,101500
2022-09-23T01:16:00.176Z,101500
2022-09-23T01:17:06.379Z,101500
2022-09-23T01:18:10.095Z,101500
2022-09-23T01:19:09.259Z,101490
2022-09-23T01:20:01.216Z,101490
2022-09-23T01:21:00.154Z,101500
2022-09-23T01:22:10.105Z,101500
2022-09-23T01:23:10.105Z,101490
2022-09-23T01:24:01.167Z,101490
2022-09-23T01:25:03.409Z,101490
2022-09-23T01:26:01.163Z,101490
2022-09-23T01:27:10.104Z,101490
2022-09-23T01:28:10.099Z,101490
2022-09-23T01:29:10.110Z,101500
2022-09-23T01:30:10.133Z,101500
2022-09-23T01:31:05.147Z,101500
2022-09-23T01:32:07.564Z,101500
2022-09-23T01:33:03.398Z,101500
2022-09-23T01:34:08.602Z,101500
2022-09-23T01:35:01.161Z,101490
2022-09-23T01:36:05.416Z,101490
2022-09-23T01:37:05.024Z,101500
2022-09-23T01:38:00.159Z,101500
2022-09-23T01:39:07.037Z,101500
2022-09-23T01:40:05.773Z,101500
2022-09-23T01:41:10.099Z,101490
2022-09-23T01:42:10.100Z,101490
2022-09-23T01:43:09.975Z,101490
2022-09-23T01:44:07.170Z,101490
2022-09-23T01:45:05.915Z,101490
2022-09-23T01:46:02.614Z,101490
2022-09-23T01:47:04.357Z,101480
2022-09-23T01:48:00.274Z,101480
2022-09-23T01:49:06.420Z,101480
2022-09-23T01:50:00.155Z,101480
2022-09-23T01:51:10.095Z,101480
2022-09-23T01:52:10.103Z,101480
2022-09-23T01:53:03.940Z,101490
2022-09-23T01:54:03.418Z,101490
2022-09-23T01:55:04.307Z,101490
2022-09-23T01:56:04.045Z,101490
2022-09-23T01:57:03.706Z,101490
2022-09-23T01:58:03.768Z,101490
2022-09-23T01:59:00.153Z,101480
2022-09-23T02:00:03.964Z,101480
2022-09-23T02:01:01.747Z,101480
2022-09-23T02:02:00.213Z,101480
2022-09-23T02:03:03.614Z,101480
2022-09-23T02:04:03.198Z,101480
2022-09-23T02:05:04.069Z,101480
2022-09-23T02:06:00.141Z,101480
2022-09-23T02:07:03.734Z,101480
2022-09-23T02:08:05.542Z,101480
2022-09-23T02:09:03.561Z,101470
2022-09-23T02:10:04.695Z,101470
2022-09-23T02:11:05.778Z,101470
2022-09-23T02:12:04.294Z,101470
2022-09-23T02:13:03.539Z,101470
2022-09-23T02:14:06.713Z,101470
2022-09-23T02:15:03.489Z,101470
2022-09-23T02:16:04.031Z,101470
2022-09-23T02:17:05.282Z,101470
2022-09-23T02:18:02.736Z,101470
2022-09-23T02:19:05.923Z,101470
2022-09-23T02:20:02.420Z,101470
2022-09-23T02:21:03.444Z,101470
2022-09-23T02:22:08.566Z,101470
2022-09-23T02:23:01.150Z,101470
2022-09-23T02:24:04.234Z,101470
2022-09-23T02:25:00.972Z,101470
2022-09-23T02:26:10.091Z,101470
2022-09-23T02:27:09.426Z,101470
2022-09-23T02:28:07.837Z,101470
2022-09-23T02:29:06.324Z,101470
2022-09-23T02:30:03.457Z,101470
2022-09-23T02:31:06.286Z,101460
2022-09-23T02:32:00.277Z,101460
2022-09-23T02:33:03.844Z,101460
2022-09-23T02:34:10.090Z,101460
2022-09-23T02:35:04.649Z,101460
2022-09-23T02:36:05.819Z,101460
2022-09-23T02:37:03.408Z,101460
2022-09-23T02:38:03.409Z,101460
2022-09-23T02:39:02.324Z,101460
2022-09-23T02:40:07.849Z,101460
2022-09-23T02:41:06.211Z,101450
2022-09-23T02:42:04.645Z,101450
2022-09-23T02:43:05.160Z,101450
2022-09-23T02:44:04.902Z,101450
2022-09-23T02:45:00.174Z,101450
2022-09-23T02:46:01.405Z,101450
2022-09-23T02:47:00.389Z,101450
2022-09-23T02:48:10.092Z,101450
2022-09-23T02:49:07.596Z,101450
2022-09-23T02:50:00.339Z,101450
2022-09-23T02:51:00.297Z,101440
2022-09-23T02:52:01.214Z,101440
2022-09-23T02:53:00.278Z,101440
2022-09-23T02:54:00.176Z,101440
2022-09-23T02:55:00.253Z,101440
2022-09-23T02:56:00.649Z,101440
2022-09-23T02:57:01.214Z,101430
2022-09-23T02:58:00.960Z,101430
2022-09-23T02:59:01.003Z,101430
2022-09-23T03:00:00.333Z,101430
2022-09-23T03:01:03.543Z,101430
2022-09-23T03:02:03.459Z,101430
2022-09-23T03:03:08.017Z,101430
2022-09-23T03:04:10.089Z,101430
2022-09-23T03:05:00.161Z,101430
2022-09-23T03:06:03.932Z,101430
2022-09-23T03:07:00.140Z,101420
2022-09-23T03:08:09.222Z,101420
2022-09-23T03:09:05.462Z,101420
2022-09-23T03:10:10.101Z,101420
2022-09-23T03:11:09.239Z,101420
2022-09-23T03:12:10.091Z,101420
2022-09-23T03:13:10.090Z,101420
2022-09-23T03:14:10.084Z,101420
2022-09-23T03:15:00.142Z,101420
2022-09-23T03:16:03.463Z,101420
2022-09-23T03:17:04.019Z,101420
2022-09-23T03:18:10.099Z,101420
2022-09-23T03:19:10.089Z,101420
2022-09-23T03:20:05.914Z,101420
2022-09-23T03:21:04.508Z,101420
2022-09-23T03:22:05.731Z,101420
2022-09-23T03:23:01.776Z,101420
2022-09-23T03:24:02.788Z,101420
2022-09-23T03:25:04.461Z,101420
2022-09-23T03:26:03.654Z,101420
2022-09-23T03:27:02.611Z,101410
2022-09-23T03:28:00.591Z,101410
2022-09-23T03:29:02.829Z,101410
2022-09-23T03:30:00.480Z,101410
2022-09-23T03:31:00.627Z,101410
2022-09-23T03:32:00.340Z,101410
2022-09-23T03:33:02.158Z,101410
2022-09-23T03:34:02.044Z,101410
2022-09-23T03:35:01.831Z,101410
2022-09-23T03:36:02.746Z,101410
2022-09-23T03:37:04.476Z,101410
2022-09-23T03:38:05.574Z,101410
2022-09-23T03:39:10.083Z,101410
2022-09-23T03:40:05.981Z,101410
2022-09-23T03:41:01.747Z,101410
2022-09-23T03:42:04.168Z,101410
2022-09-23T03:43:00.698Z,101410
2022-09-23T03:44:00.878Z,101410
2022-09-23T03:45:03.066Z,101410
2022-09-23T03:46:00.236Z,101410
2022-09-23T03:47:00.487Z,101410
2022-09-23T03:48:00.362Z,101410
2022-09-23T03:49:07.242Z,101410
2022-09-23T03:50:00.175Z,101410
2022-09-23T03:51:07.652Z,101410
2022-09-23T03:52:00.231Z,101410
2022-09-23T03:53:00.496Z,101400
2022-09-23T03:54:00.242Z,101400
2022-09-23T03:55:00.192Z,101400
2022-09-23T03:56:00.276Z,101400
2022-09-23T03:57:01.787Z,101410
2022-09-23T03:58:00.161Z,101410
2022-09-23T03:59:00.191Z,101400
2022-09-23T04:00:00.255Z,101400
2022-09-23T04:01:00.234Z,101400
2022-09-23T04:02:00.216Z,101400
2022-09-23T04:03:00.285Z,101400
2022-09-23T04:04:00.292Z,101400
2022-09-23T04:05:00.242Z,101400
2022-09-23T04:06:00.160Z,101400
2022-09-23T04:07:00.630Z,101400
2022-09-23T04:08:00.289Z,101400
2022-09-23T04:09:00.218Z,101390
2022-09-23T04:10:00.187Z,101390
2022-09-23T04:11:00.828Z,101390
2022-09-23T04:12:00.315Z,101390
2022-09-23T04:13:00.164Z,101390
2022-09-23T04:14:00.384Z,101390
2022-09-23T04:15:00.197Z,101390
2022-09-23T04:16:00.289Z,101390
2022-09-23T04:17:00.151Z,101400
2022-09-23T04:18:00.158Z,101400
2022-09-23T04:19:00.179Z,101400
2022-09-23T04:20:00.231Z,101400
2022-09-23T04:21:00.227Z,101400
2022-09-23T04:22:00.160Z,101400
2022-09-23T04:23:00.154Z,101400
2022-09-23T04:24:00.286Z,101400
2022-09-23T04:25:00.146Z,101400
2022-09-23T04:26:00.153Z,101400
2022-09-23T04:27:00.200Z,101390
2022-09-23T04:28:00.274Z,101390
2022-09-23T04:29:00.556Z,101400
2022-09-23T04:30:00.215Z,101400
2022-09-23T04:31:04.638Z,101400
2022-09-23T04:32:00.303Z,101400
2022-09-23T04:33:00.160Z,101400
2022-09-23T04:34:00.156Z,101400
2022-09-23T04:35:00.219Z,101400
2022-09-23T04:36:00.211Z,101400
2022-09-23T04:37:00.156Z,101400
2022-09-23T04:38:00.174Z,101400
2022-09-23T04:39:00.470Z,101400
2022-09-23T04:40:00.289Z,101400
2022-09-23T04:41:00.176Z,101400
2022-09-23T04:42:00.154Z,101400
2022-09-23T04:43:00.154Z,101390
2022-09-23T04:44:00.281Z,101390
2022-09-23T04:45:00.158Z,101390
2022-09-23T04:46:01.056Z,101390
2022-09-23T04:47:00.302Z,101390
2022-09-23T04:48:00.311Z,101390
2022-09-23T04:49:00.261Z,101390
2022-09-23T04:50:00.247Z,101390
2022-09-23T04:51:01.188Z,101390
2022-09-23T04:52:00.280Z,101390
2022-09-23T04:53:00.166Z,101390
2022-09-23T04:54:00.153Z,101390
2022-09-23T04:55:00.156Z,101380
2022-09-23T04:56:00.890Z,101380
2022-09-23T04:57:00.151Z,101390
2022-09-23T04:58:00.177Z,101390
2022-09-23T04:59:00.452Z,101390
2022-09-23T05:00:00.212Z,101390
2022-09-23T05:01:10.145Z,101390
2022-09-23T05:02:00.220Z,101390
2022-09-23T05:03:00.154Z,101390
2022-09-23T05:04:01.593Z,101390
2022-09-23T05:05:00.150Z,101390
2022-09-23T05:06:00.191Z,101390
2022-09-23T05:07:03.192Z,101390
2022-09-23T05:08:00.260Z,101390
2022-09-23T05:09:00.885Z,101390
2022-09-23T05:10:00.187Z,101390
2022-09-23T05:11:01.250Z,101390
2022-09-23T05:12:00.281Z,101390
2022-09-23T05:13:00.151Z,101390
2022-09-23T05:14:00.174Z,101390
2022-09-23T05:15:00.194Z,101390
2022-09-23T05:16:01.677Z,101390
2022-09-23T05:17:00.157Z,101390
2022-09-23T05:18:00.160Z,101390
2022-09-23T05:19:00.232Z,101390
2022-09-23T05:20:00.254Z,101390
2022-09-23T05:21:00.760Z,101390
2022-09-23T05:22:00.164Z,101390
2022-09-23T05:23:00.147Z,101380
2022-09-23T05:24:00.240Z,101380
2022-09-23T05:25:00.225Z,101390
2022-09-23T05:26:01.814Z,101390
2022-09-23T05:27:00.151Z,101390
2022-09-23T05:28:00.276Z,101390
2022-09-23T05:29:00.282Z,101390
2022-09-23T05:30:00.183Z,101390
2022-09-23T05:31:01.166Z,101390
2022-09-23T05:32:00.303Z,101390
2022-09-23T05:33:00.151Z,101390
2022-09-23T05:34:01.335Z,101390
2022-09-23T05:35:00.156Z,101390
2022-09-23T05:36:00.723Z,101390
2022-09-23T05:37:00.310Z,101390
2022-09-23T05:38:00.160Z,101390
2022-09-23T05:39:00.493Z,101390
2022-09-23T05:40:00.271Z,101390
2022-09-23T05:41:01.622Z,101400
2022-09-23T05:42:00.164Z,101400
2022-09-23T05:43:00.147Z,101390
2022-09-23T05:44:00.317Z,101390
2022-09-23T05:45:00.150Z,101400
2022-09-23T05:46:03.024Z,101400
2022-09-23T05:47:00.243Z,101400
2022-09-23T05:48:00.219Z,101400
2022-09-23T05:49:02.830Z,101400
2022-09-23T05:50:00.741Z,101400
2022-09-23T05:51:00.407Z,101400
2022-09-23T05:52:00.214Z,101400
2022-09-23T05:53:00.156Z,101400
2022-09-23T05:54:00.374Z,101400
2022-09-23T05:55:00.161Z,101400
2022-09-23T05:56:00.313Z,101400
2022-09-23T05:57:02.766Z,101400
2022-09-23T05:58:00.152Z,101400
2022-09-23T05:59:01.027Z,101400
2022-09-23T06:00:00.255Z,101400
2022-09-23T06:01:00.157Z,101400
2022-09-23T06:02:00.204Z,101400
2022-09-23T06:03:00.201Z,101410
2022-09-23T06:04:01.132Z,101410
2022-09-23T06:05:00.178Z,101400
2022-09-23T06:06:00.158Z,101400
2022-09-23T06:07:03.285Z,101400
2022-09-23T06:08:00.299Z,101400
2022-09-23T06:09:00.554Z,101400
2022-09-23T06:10:00.163Z,101400
2022-09-23T06:11:04.558Z,101400
2022-09-23T06:12:00.243Z,101400
2022-09-23T06:13:00.161Z,101400
2022-09-23T06:14:00.620Z,101400
2022-09-23T06:15:00.158Z,101400
2022-09-23T06:16:00.617Z,101400
2022-09-23T06:17:00.151Z,101400
2022-09-23T06:18:00.244Z,101400
2022-09-23T06:19:05.105Z,101400
2022-09-23T06:20:00.294Z,101400
2022-09-23T06:21:01.123Z,101400
2022-09-23T06:22:00.160Z,101400
2022-09-23T06:23:05.848Z,101390
2022-09-23T06:24:00.343Z,101390
2022-09-23T06:25:00.152Z,101390
2022-09-23T06:26:01.019Z,101390
2022-09-23T06:27:00.148Z,101380
2022-09-23T06:28:00.268Z,101380
2022-09-23T06:29:00.753Z,101380
2022-09-23T06:30:00.198Z,101380
2022-09-23T06:31:01.052Z,101380
2022-09-23T06:32:00.330Z,101380
2022-09-23T06:33:00.155Z,101390
2022-09-23T06:34:09.487Z,101390
2022-09-23T06:35:00.182Z,101390
2022-09-23T06:36:01.462Z,101390
2022-09-23T06:37:03.172Z,101390
2022-09-23T06:38:03.708Z,101390
2022-09-23T06:39:00.495Z,101390
2022-09-23T06:40:00.256Z,101390
2022-09-23T06:41:00.650Z,101390
2022-09-23T06:42:00.166Z,101390
2022-09-23T06:43:01.043Z,101390
2022-09-23T06:44:00.256Z,101390
2022-09-23T06:45:00.156Z,101390
2022-09-23T06:46:01.891Z,101390
2022-09-23T06:47:00.262Z,101390
2022-09-23T06:48:00.263Z,101390
2022-09-23T06:49:00.146Z,101390
2022-09-23T06:50:00.151Z,101390
2022-09-23T06:51:01.192Z,101380
2022-09-23T06:52:00.226Z,101380
2022-09-23T06:53:00.180Z,101380
2022-09-23T06:54:00.315Z,101380
2022-09-23T06:55:00.355Z,101380
2022-09-23T06:56:01.048Z,101380
2022-09-23T06:57:00.149Z,101380
2022-09-23T06:58:00.154Z,101380
2022-09-23T06:59:00.151Z,101380
2022-09-23T07:00:00.300Z,101380
2022-09-23T07:01:01.181Z,101380
2022-09-23T07:02:00.587Z,101380
2022-09-23T07:03:00.234Z,101380
2022-09-23T07:04:00.279Z,101380
2022-09-23T07:05:00.148Z,101380
2022-09-23T07:06:00.238Z,101380
2022-09-23T07:07:00.157Z,101380
2022-09-23T07:08:00.329Z,101380
2022-09-23T07:09:00.152Z,101390
2022-09-23T07:10:00.168Z,101390
2022-09-23T07:11:01.748Z,101390
2022-09-23T07:12:00.248Z,101390
2022-09-23T07:13:00.816Z,101390
2022-09-23T07:14:00.173Z,101390
2022-09-23T07:15:00.179Z,101390
2022-09-23T07:16:00.740Z,101390
2022-09-23T07:17:00.164Z,101390
2022-09-23T07:18:00.149Z,101390
2022-09-23T07:19:00.162Z,101390
2022-09-23T07:20:00.305Z,101390
2022-09-23T07:21:04.406Z,101390
2022-09-23T07:22:00.145Z,101390
2022-09-23T07:23:00.159Z,101390
2022-09-23T07:24:00.267Z,101390
2022-09-23T07:25:00.153Z,101390
2022-09-23T07:26:00.412Z,101390
2022-09-23T07:27:00.152Z,101390
2022-09-23T07:28:00.315Z,101390
2022-09-23T07:29:01.092Z,101390
2022-09-23T07:30:00.207Z,101390
2022-09-23T07:31:02.309Z,101390
2022-09-23T07:32:08.521Z,101390
2022-09-23T07:33:00.278Z,101390
2022-09-23T07:34:00.836Z,101390
2022-09-23T07:35:00.167Z,101390
2022-09-23T07:36:09.616Z,101390
2022-09-23T07:37:00.162Z,101390
2022-09-23T07:38:00.156Z,101390
2022-09-23T07:39:00.150Z,101390
2022-09-23T07:40:00.262Z,101390
2022-09-23T07:41:01.031Z,101390
2022-09-23T07:42:00.154Z,101390
2022-09-23T07:43:00.173Z,101380
2022-09-23T07:44:00.251Z,101380
2022-09-23T07:45:00.180Z,101380
2022-09-23T07:46:01.084Z,101380
2022-09-23T07:47:00.154Z,101380
2022-09-23T07:48:00.672Z,101380
2022-09-23T07:49:00.521Z,101380
2022-09-23T07:50:00.194Z,101380
2022-09-23T07:51:05.349Z,101380
2022-09-23T07:52:00.215Z,101380
2022-09-23T07:53:00.159Z,101390
2022-09-23T07:54:00.271Z,101390
2022-09-23T07:55:00.169Z,101390
2022-09-23T07:56:00.470Z,101390
2022-09-23T07:57:00.322Z,101390
2022-09-23T07:58:00.163Z,101390
2022-09-23T07:59:00.670Z,101390
2022-09-23T08:00:00.440Z,101390
2022-09-23T08:01:01.068Z,101390
2022-09-23T08:02:00.230Z,101390
2022-09-23T08:03:00.267Z,101380
2022-09-23T08:04:02.001Z,101380
2022-09-23T08:05:00.153Z,101380
2022-09-23T08:06:08.773Z,101380
2022-09-23T08:07:01.399Z,101390
2022-09-23T08:08:00.228Z,101390
2022-09-23T08:09:00.549Z,101390
2022-09-23T08:10:00.297Z,101390
2022-09-23T08:11:01.183Z,101390
2022-09-23T08:12:01.118Z,101390
2022-09-23T08:13:00.156Z,101390
2022-09-23T08:14:00.153Z,101390
2022-09-23T08:15:00.168Z,101390
2022-09-23T08:16:00.295Z,101390
2022-09-23T08:17:00.168Z,101390
2022-09-23T08:18:00.158Z,101390
2022-09-23T08:19:00.377Z,101390
2022-09-23T08:20:00.265Z,101390
2022-09-23T08:21:00.555Z,101400
2022-09-23T08:22:00.165Z,101400
2022-09-23T08:23:00.142Z,101390
2022-09-23T08:24:00.315Z,101390
2022-09-23T08:25:00.187Z,101390
2022-09-23T08:26:01.472Z,101390
2022-09-23T08:27:00.162Z,101390
2022-09-23T08:28:00.266Z,101390
2022-09-23T08:29:00.351Z,101390
2022-09-23T08:30:00.153Z,101390
2022-09-23T08:31:00.246Z,101400
2022-09-23T08:32:00.274Z,101400
2022-09-23T08:33:00.155Z,101400
2022-09-23T08:34:00.312Z,101400
2022-09-23T08:35:00.156Z,101400
2022-09-23T08:36:00.992Z,101400
2022-09-23T08:37:00.328Z,101400
2022-09-23T08:38:00.151Z,101400
2022-09-23T08:39:00.224Z,101400
2022-09-23T08:40:00.263Z,101400
2022-09-23T08:41:04.979Z,101400
2022-09-23T08:42:01.144Z,101400
2022-09-23T08:43:00.181Z,101400
2022-09-23T08:44:02.862Z,101400
2022-09-23T08:45:02.945Z,101400
2022-09-23T08:46:05.013Z,101400
2022-09-23T08:47:10.090Z,101390
2022-09-23T08:48:03.237Z,101390
2022-09-23T08:49:00.274Z,101400
2022-09-23T08:50:10.091Z,101400
2022-09-23T08:51:02.931Z,101390
2022-09-23T08:52:04.332Z,101390
2022-09-23T08:53:01.641Z,101400
2022-09-23T08:54:00.530Z,101400
2022-09-23T08:55:01.241Z,101400
2022-09-23T08:56:03.975Z,101400
2022-09-23T08:57:01.705Z,101400
2022-09-23T08:58:24.482Z,101400
2022-09-23T08:59:10.195Z,101400
2022-09-23T09:00:00.982Z,101400
2022-09-23T09:01:10.185Z,101390
2022-09-23T09:02:04.998Z,101390
2022-09-23T09:03:00.403Z,101400
2022-09-23T09:04:01.496Z,101400
2022-09-23T09:05:01.643Z,101390
2022-09-23T09:06:00.160Z,101390
2022-09-23T09:07:24.644Z,101390
2022-09-23T09:08:00.647Z,101390
2022-09-23T09:09:01.196Z,101390
2022-09-23T09:10:10.091Z,101390
2022-09-23T09:11:00.155Z,101390
2022-09-23T09:12:10.088Z,101390
2022-09-23T09:13:09.618Z,101380
2022-09-23T09:14:10.091Z,101380
2022-09-23T09:15:01.434Z,101380
2022-09-23T09:16:10.215Z,101380
2022-09-23T09:17:03.840Z,101380
2022-09-23T09:18:00.133Z,101380
2022-09-23T09:19:00.549Z,101380
2022-09-23T09:20:04.833Z,101380
2022-09-23T09:21:07.231Z,101380
2022-09-23T09:22:03.927Z,101380
2022-09-23T09:23:05.635Z,101380
2022-09-23T09:24:01.250Z,101380
2022-09-23T09:25:04.580Z,101380
2022-09-23T09:26:00.961Z,101380
2022-09-23T09:27:07.941Z,101380
2022-09-23T09:28:00.290Z,101380
2022-09-23T09:29:23.716Z,101370
2022-09-23T09:30:00.493Z,101370
2022-09-23T09:31:01.725Z,101370
2022-09-23T09:32:10.090Z,101370
2022-09-23T09:33:01.349Z,101370
2022-09-23T09:34:03.666Z,101370
2022-09-23T09:35:05.906Z,101370
2022-09-23T09:36:05.885Z,101370
2022-09-23T09:37:06.808Z,101360
2022-09-23T09:38:00.236Z,101360
2022-09-23T09:39:00.507Z,101360
2022-09-23T09:40:00.694Z,101360
2022-09-23T09:41:07.776Z,101360
2022-09-23T09:42:00.193Z,101360
2022-09-23T09:43:00.547Z,101360
2022-09-23T09:44:01.595Z,101360
2022-09-23T09:45:01.849Z,101360
2022-09-23T09:46:01.146Z,101360
2022-09-23T09:47:10.089Z,101360
2022-09-23T09:48:10.086Z,101360
2022-09-23T09:49:02.455Z,101350
2022-09-23T09:50:07.637Z,101350
2022-09-23T09:51:10.087Z,101350
2022-09-23T09:52:10.094Z,101350
2022-09-23T09:53:10.049Z,101350
2022-09-23T09:54:10.036Z,101350
2022-09-23T09:55:10.050Z,101350
2022-09-23T09:56:04.629Z,101350
2022-09-23T09:57:03.057Z,101350
2022-09-23T09:58:02.611Z,101350
2022-09-23T09:59:07.741Z,101350
2022-09-23T10:00:10.049Z,101350
2022-09-23T10:01:00.560Z,101350
2022-09-23T10:02:10.028Z,101350
2022-09-23T10:03:02.032Z,101350
2022-09-23T10:04:02.129Z,101350
2022-09-23T10:05:01.524Z,101350
2022-09-23T10:06:10.029Z,101350
2022-09-23T10:07:05.308Z,101350
2022-09-23T10:08:10.033Z,101350
2022-09-23T10:09:00.150Z,101350
2022-09-23T10:10:22.077Z,101350
2022-09-23T10:11:01.658Z,101350
2022-09-23T10:12:02.871Z,101350
2022-09-23T10:13:10.032Z,101350
2022-09-23T10:14:10.027Z,101350
2022-09-23T10:15:00.102Z,101350
2022-09-23T10:16:01.077Z,101350
2022-09-23T10:17:01.446Z,101350
2022-09-23T10:18:00.196Z,101350
2022-09-23T10:19:02.238Z,101350
2022-09-23T10:20:04.542Z,101350
2022-09-23T10:21:08.990Z,101350
2022-09-23T10:22:02.517Z,101350
2022-09-23T10:23:04.781Z,101340
2022-09-23T10:24:01.514Z,101340
2022-09-23T10:25:01.876Z,101340
2022-09-23T10:26:01.758Z,101340
2022-09-23T10:27:03.321Z,101340
2022-09-23T10:28:10.031Z,101340
2022-09-23T10:29:01.362Z,101340
2022-09-23T10:30:02.256Z,101340
2022-09-23T10:31:04.497Z,101340
2022-09-23T10:32:10.029Z,101340
2022-09-23T10:33:00.106Z,101340
2022-09-23T10:34:02.322Z,101340
2022-09-23T10:35:02.940Z,101340
2022-09-23T10:36:00.144Z,101340
2022-09-23T10:37:02.124Z,101340
2022-09-23T10:38:00.251Z,101340
2022-09-23T10:39:01.359Z,101340
2022-09-23T10:40:10.083Z,101340
2022-09-23T10:41:01.286Z,101340
2022-09-23T10:42:04.423Z,101340
2022-09-23T10:43:10.034Z,101340
2022-09-23T10:44:07.605Z,101340
2022-09-23T10:45:10.038Z,101340
2022-09-23T10:46:02.159Z,101340
2022-09-23T10:47:07.944Z,101340
2022-09-23T10:48:00.224Z,101340
2022-09-23T10:49:08.452Z,101340
2022-09-23T10:50:10.048Z,101340
2022-09-23T10:51:03.297Z,101330
2022-09-23T10:52:08.006Z,101330
2022-09-23T10:53:01.163Z,101330
2022-09-23T10:54:10.073Z,101330
2022-09-23T10:55:10.049Z,101330
2022-09-23T10:56:01.110Z,101330
2022-09-23T10:57:05.318Z,101330
2022-09-23T10:58:00.145Z,101330
2022-09-23T10:59:00.087Z,101330
2022-09-23T11:00:09.514Z,101330
2022-09-23T11:01:08.690Z,101330
2022-09-23T11:02:09.011Z,101330
2022-09-23T11:03:10.043Z,101330
2022-09-23T11:04:01.279Z,101330
2022-09-23T11:05:10.139Z,101330
2022-09-23T11:06:10.047Z,101330
2022-09-23T11:07:10.045Z,101320
2022-09-23T11:08:10.040Z,101320
2022-09-23T11:09:03.349Z,101320
2022-09-23T11:10:01.103Z,101320
2022-09-23T11:11:01.103Z,101320
2022-09-23T11:12:10.049Z,101320
2022-09-23T11:13:10.044Z,101320
2022-09-23T11:14:09.575Z,101320
2022-09-23T11:15:07.573Z,101320
2022-09-23T11:16:10.094Z,101320
2022-09-23T11:17:01.191Z,101320
2022-09-23T11:18:10.047Z,101320
2022-09-23T11:19:00.097Z,101320
2022-09-23T11:20:10.054Z,101320
2022-09-23T11:21:06.315Z,101320
2022-09-23T11:22:07.502Z,101320
2022-09-23T11:23:00.110Z,101320
2022-09-23T11:24:10.112Z,101320
2022-09-23T11:25:01.109Z,101320
2022-09-23T11:26:10.062Z,101320
2022-09-23T11:27:10.054Z,101310
2022-09-23T11:28:10.058Z,101310
2022-09-23T11:29:03.370Z,101310
2022-09-23T11:30:10.058Z,101310
2022-09-23T11:31:10.205Z,101310
2022-09-23T11:32:10.054Z,101310
2022-09-23T11:33:00.192Z,101310
2022-09-23T11:34:10.161Z,101310
2022-09-23T11:35:10.062Z,101300
2022-09-23T11:36:05.011Z,101300
2022-09-23T11:37:03.379Z,101310
2022-09-23T11:38:10.053Z,101310
2022-09-23T11:39:01.691Z,101310
2022-09-23T11:40:03.805Z,101310
2022-09-23T11:41:02.941Z,101300
2022-09-23T11:42:00.531Z,101300
2022-09-23T11:43:01.111Z,101300
2022-09-23T11:44:05.811Z,101300
2022-09-23T11:45:05.985Z,101300
2022-09-23T11:46:10.256Z,101300
2022-09-23T11:47:10.056Z,101300
2022-09-23T11:48:04.542Z,101300
2022-09-23T11:49:10.057Z,101300
2022-09-23T11:50:04.221Z,101300
2022-09-23T11:51:03.792Z,101300
2022-09-23T11:52:00.120Z,101300
2022-09-23T11:53:03.365Z,101300
2022-09-23T11:54:04.609Z,101300
2022-09-23T11:55:13.594Z,101290
2022-09-23T11:56:05.942Z,101290
2022-09-23T11:57:02.255Z,101290
2022-09-23T11:58:06.126Z,101290
2022-09-23T11:59:10.276Z,101290
2022-09-23T12:00:02.130Z,101290
2022-09-23T12:01:03.336Z,101280
2022-09-23T12:02:15.401Z,101280
2022-09-23T12:03:10.235Z,101280
2022-09-23T12:04:08.403Z,101280
2022-09-23T12:05:02.715Z,101280
2022-09-23T12:06:03.766Z,101280
2022-09-23T12:07:00.105Z,101280
2022-09-23T12:08:10.057Z,101280
2022-09-23T12:09:02.740Z,101280
2022-09-23T12:10:03.027Z,101280
2022-09-23T12:11:10.059Z,101280
2022-09-23T12:12:00.109Z,101280
2022-09-23T12:13:03.366Z,101280
2022-09-23T12:14:00.184Z,101280
2022-09-23T12:15:10.068Z,101270
2022-09-23T12:16:10.286Z,101270
2022-09-23T12:17:03.402Z,101270
2022-09-23T12:18:10.067Z,101270
2022-09-23T12:19:08.740Z,101270
2022-09-23T12:20:10.086Z,101270
2022-09-23T12:21:18.278Z,101270
2022-09-23T12:22:10.060Z,101270
2022-09-23T12:23:10.059Z,101270
2022-09-23T12:24:10.119Z,101270
2022-09-23T12:25:10.075Z,101270
2022-09-23T12:26:01.851Z,101270
2022-09-23T12:27:03.135Z,101270
2022-09-23T12:28:03.821Z,101270